sensor_id;sensor_type;location;lat;lon;timestamp;pressure;altitude;pressure_sealevel;temperature;humidity
8758;BME280;4415;42.152;24.744;2023-07-30T00:00:00;99219.56;;;25.14;nan
8758;BME280;4415;42.152;24.744;2023-07-30T00:02:26;99207.69;;;25.03;nan
8758;BME280;4415;42.152;24.744;2023-07-30T00:04:51;99210.03;;;25.05;nan
8758;BME280;4415;42.152;24.744;2023-07-30T00:07:17;99212.44;;;25.13;nan
8758;BME280;4415;42.152;24.744;2023-07-30T00:09:42;99206.91;;;25.20;nan
8758;BME280;4415;42.152;24.744;2023-07-30T00:12:08;99207.69;;;25.14;nan
8758;BME280;4415;42.152;24.744;2023-07-30T00:14:34;99126.75;;;25.06;nan
8758;BME280;4415;42.152;24.744;2023-07-30T00:17:00;99210.84;;;25.12;nan
8758;BME280;4415;42.152;24.744;2023-07-30T00:19:26;99206.91;;;25.13;nan
8758;BME280;4415;42.152;24.744;2023-07-30T00:24:16;99201.34;;;24.99;nan
8758;BME280;4415;42.152;24.744;2023-07-30T00:26:42;99199.78;;;25.02;nan
8758;BME280;4415;42.152;24.744;2023-07-30T00:29:07;99198.19;;;24.90;nan
8758;BME280;4415;42.152;24.744;2023-07-30T00:31:32;99203.75;;;25.01;nan
8758;BME280;4415;42.152;24.744;2023-07-30T00:33:58;99201.38;;;25.03;nan
8758;BME280;4415;42.152;24.744;2023-07-30T00:36:23;99204.53;;;25.12;nan
8758;BME280;4415;42.152;24.744;2023-07-30T00:41:14;99195.03;;;25.02;nan
8758;BME280;4415;42.152;24.744;2023-07-30T00:48:30;99205.31;;;24.98;nan
8758;BME280;4415;42.152;24.744;2023-07-30T00:50:56;99216.38;;;24.98;nan
8758;BME280;4415;42.152;24.744;2023-07-30T00:55:48;99217.94;;;25.03;nan
8758;BME280;4415;42.152;24.744;2023-07-30T00:58:13;99203.75;;;25.01;nan
8758;BME280;4415;42.152;24.744;2023-07-30T01:00:40;99195.84;;;24.96;nan
8758;BME280;4415;42.152;24.744;2023-07-30T01:03:06;99206.88;;;24.85;nan
8758;BME280;4415;42.152;24.744;2023-07-30T01:05:32;99204.50;;;24.80;nan
8758;BME280;4415;42.152;24.744;2023-07-30T01:07:57;99207.59;;;24.75;nan
8758;BME280;4415;42.152;24.744;2023-07-30T01:10:23;99203.63;;;24.62;nan
8758;BME280;4415;42.152;24.744;2023-07-30T01:12:50;99191.00;;;24.61;nan
8758;BME280;4415;42.152;24.744;2023-07-30T01:17:42;99224.94;;;24.65;nan
8758;BME280;4415;42.152;24.744;2023-07-30T01:20:08;99223.38;;;24.71;nan
8758;BME280;4415;42.152;24.744;2023-07-30T01:22:33;99210.72;;;24.56;nan
8758;BME280;4415;42.152;24.744;2023-07-30T01:24:58;99214.59;;;24.41;nan
8758;BME280;4415;42.152;24.744;2023-07-30T01:27:33;99212.25;;;24.46;nan
8758;BME280;4415;42.152;24.744;2023-07-30T01:30:08;99212.97;;;24.26;nan
8758;BME280;4415;42.152;24.744;2023-07-30T01:35:03;99224.78;;;24.23;nan
8758;BME280;4415;42.152;24.744;2023-07-30T01:37:29;99207.31;;;24.04;nan
8758;BME280;4415;42.152;24.744;2023-07-30T01:39:56;99216.78;;;24.00;nan
8758;BME280;4415;42.152;24.744;2023-07-30T01:42:21;99219.91;;;23.98;nan
8758;BME280;4415;42.152;24.744;2023-07-30T01:44:47;99204.94;;;23.99;nan
8758;BME280;4415;42.152;24.744;2023-07-30T01:49:37;99212.72;;;23.83;nan
8758;BME280;4415;42.152;24.744;2023-07-30T01:52:03;99204.88;;;23.89;nan
8758;BME280;4415;42.152;24.744;2023-07-30T01:54:28;99225.41;;;23.95;nan
8758;BME280;4415;42.152;24.744;2023-07-30T01:56:54;99208.66;;;23.67;nan
8758;BME280;4415;42.152;24.744;2023-07-30T02:01:44;99217.84;;;23.30;nan
8758;BME280;4415;42.152;24.744;2023-07-30T02:06:35;99203.38;;;23.00;nan
8758;BME280;4415;42.152;24.744;2023-07-30T02:09:00;99237.38;;;23.15;nan
8758;BME280;4415;42.152;24.744;2023-07-30T02:13:51;99219.19;;;23.07;nan
8758;BME280;4415;42.152;24.744;2023-07-30T02:16:17;99225.41;;;22.97;nan
8758;BME280;4415;42.152;24.744;2023-07-30T02:23:33;99232.56;;;23.05;nan
8758;BME280;4415;42.152;24.744;2023-07-30T02:25:58;99227.84;;;23.05;nan
8758;BME280;4415;42.152;24.744;2023-07-30T02:30:49;99235.53;;;22.89;nan
8758;BME280;4415;42.152;24.744;2023-07-30T02:38:05;99242.81;;;23.08;nan
8758;BME280;4415;42.152;24.744;2023-07-30T02:40:31;99235.03;;;23.17;nan
8758;BME280;4415;42.152;24.744;2023-07-30T02:42:56;99223.13;;;23.06;nan
8758;BME280;4415;42.152;24.744;2023-07-30T02:45:22;99233.38;;;23.09;nan
8758;BME280;4415;42.152;24.744;2023-07-30T02:47:47;99259.50;;;23.22;nan
8758;BME280;4415;42.152;24.744;2023-07-30T02:50:13;99258.69;;;23.18;nan
8758;BME280;4415;42.152;24.744;2023-07-30T02:55:04;99251.56;;;23.17;nan
8758;BME280;4415;42.152;24.744;2023-07-30T02:57:29;99250.84;;;23.23;nan
8758;BME280;4415;42.152;24.744;2023-07-30T02:59:55;99257.09;;;23.17;nan
8758;BME280;4415;42.152;24.744;2023-07-30T03:02:20;99253.13;;;23.14;nan
8758;BME280;4415;42.152;24.744;2023-07-30T03:04:45;99266.50;;;23.16;nan
8758;BME280;4415;42.152;24.744;2023-07-30T03:07:11;99264.03;;;23.04;nan
8758;BME280;4415;42.152;24.744;2023-07-30T03:12:02;99260.03;;;22.98;nan
8758;BME280;4415;42.152;24.744;2023-07-30T03:14:29;99265.47;;;22.90;nan
8758;BME280;4415;42.152;24.744;2023-07-30T03:19:19;99268.38;;;22.68;nan
8758;BME280;4415;42.152;24.744;2023-07-30T03:21:45;99284.94;;;22.71;nan
8758;BME280;4415;42.152;24.744;2023-07-30T03:26:35;99285.13;;;22.89;nan
8758;BME280;4415;42.152;24.744;2023-07-30T03:29:01;99276.03;;;23.22;nan
8758;BME280;4415;42.152;24.744;2023-07-30T03:31:26;99279.53;;;23.59;nan
8758;BME280;4415;42.152;24.744;2023-07-30T03:36:18;99276.91;;;24.31;nan
8758;BME280;4415;42.152;24.744;2023-07-30T03:38:44;99318.13;;;24.75;nan
8758;BME280;4415;42.152;24.744;2023-07-30T03:41:10;99245.59;;;25.06;nan
8758;BME280;4415;42.152;24.744;2023-07-30T03:43:36;99287.50;;;25.40;nan
8758;BME280;4415;42.152;24.744;2023-07-30T03:46:01;99265.41;;;25.61;nan
8758;BME280;4415;42.152;24.744;2023-07-30T03:48:27;99272.50;;;25.87;nan
8758;BME280;4415;42.152;24.744;2023-07-30T03:50:53;99274.03;;;26.30;nan
8758;BME280;4415;42.152;24.744;2023-07-30T03:53:19;99275.41;;;26.88;nan
8758;BME280;4415;42.152;24.744;2023-07-30T03:58:09;99285.66;;;28.01;nan
8758;BME280;4415;42.152;24.744;2023-07-30T04:03:00;99273.19;;;28.53;nan
8758;BME280;4415;42.152;24.744;2023-07-30T04:05:25;99262.00;;;29.21;nan
8758;BME280;4415;42.152;24.744;2023-07-30T04:07:51;99290.09;;;29.53;nan
8758;BME280;4415;42.152;24.744;2023-07-30T04:10:16;99288.81;;;29.84;nan
8758;BME280;4415;42.152;24.744;2023-07-30T04:12:41;99267.78;;;29.57;nan
8758;BME280;4415;42.152;24.744;2023-07-30T04:15:07;99280.56;;;29.01;nan
8758;BME280;4415;42.152;24.744;2023-07-30T04:19:59;99291.66;;;29.54;nan
8758;BME280;4415;42.152;24.744;2023-07-30T04:22:24;99298.09;;;29.51;nan
8758;BME280;4415;42.152;24.744;2023-07-30T04:24:50;99309.72;;;29.69;nan
8758;BME280;4415;42.152;24.744;2023-07-30T04:27:15;99295.97;;;29.85;nan
8758;BME280;4415;42.152;24.744;2023-07-30T04:29:40;99309.91;;;29.59;nan
8758;BME280;4415;42.152;24.744;2023-07-30T04:32:06;99287.91;;;29.41;nan
8758;BME280;4415;42.152;24.744;2023-07-30T04:34:32;99307.34;;;29.68;nan
8758;BME280;4415;42.152;24.744;2023-07-30T04:36:57;99308.78;;;29.79;nan
8758;BME280;4415;42.152;24.744;2023-07-30T04:39:22;99295.84;;;29.92;nan
8758;BME280;4415;42.152;24.744;2023-07-30T04:41:48;99302.31;;;30.29;nan
8758;BME280;4415;42.152;24.744;2023-07-30T04:44:13;99313.81;;;30.93;nan
8758;BME280;4415;42.152;24.744;2023-07-30T04:46:39;99320.75;;;31.05;nan
8758;BME280;4415;42.152;24.744;2023-07-30T04:49:04;99319.94;;;31.04;nan
8758;BME280;4415;42.152;24.744;2023-07-30T04:51:29;99309.16;;;31.58;nan
8758;BME280;4415;42.152;24.744;2023-07-30T04:53:55;99311.19;;;32.35;nan
8758;BME280;4415;42.152;24.744;2023-07-30T04:56:20;99284.91;;;32.32;nan
8758;BME280;4415;42.152;24.744;2023-07-30T04:58:46;99303.66;;;31.87;nan
8758;BME280;4415;42.152;24.744;2023-07-30T05:01:11;99302.09;;;33.01;nan
8758;BME280;4415;42.152;24.744;2023-07-30T05:03:36;99282.44;;;33.42;nan
8758;BME280;4415;42.152;24.744;2023-07-30T05:06:02;99280.69;;;34.30;nan
8758;BME280;4415;42.152;24.744;2023-07-30T05:08:28;99296.97;;;34.56;nan
8758;BME280;4415;42.152;24.744;2023-07-30T05:13:18;99300.59;;;35.09;nan
8758;BME280;4415;42.152;24.744;2023-07-30T05:15:44;99240.22;;;35.14;nan
8758;BME280;4415;42.152;24.744;2023-07-30T05:18:09;99301.31;;;35.32;nan
8758;BME280;4415;42.152;24.744;2023-07-30T05:20:34;99306.75;;;35.75;nan
8758;BME280;4415;42.152;24.744;2023-07-30T05:23:00;99307.28;;;36.91;nan
8758;BME280;4415;42.152;24.744;2023-07-30T05:25:27;99308.13;;;36.56;nan
8758;BME280;4415;42.152;24.744;2023-07-30T05:27:53;99367.84;;;36.69;nan
8758;BME280;4415;42.152;24.744;2023-07-30T05:30:18;99293.41;;;37.62;nan
8758;BME280;4415;42.152;24.744;2023-07-30T05:32:43;99247.00;;;37.40;nan
8758;BME280;4415;42.152;24.744;2023-07-30T05:35:09;99306.53;;;37.42;nan
8758;BME280;4415;42.152;24.744;2023-07-30T05:37:34;99292.72;;;35.04;nan
8758;BME280;4415;42.152;24.744;2023-07-30T05:39:59;99316.34;;;35.16;nan
8758;BME280;4415;42.152;24.744;2023-07-30T05:42:25;99322.84;;;36.51;nan
8758;BME280;4415;42.152;24.744;2023-07-30T05:44:50;99301.31;;;37.49;nan
8758;BME280;4415;42.152;24.744;2023-07-30T05:47:16;99293.94;;;37.52;nan
8758;BME280;4415;42.152;24.744;2023-07-30T05:49:41;99296.69;;;39.14;nan
8758;BME280;4415;42.152;24.744;2023-07-30T05:52:06;99296.75;;;39.84;nan
8758;BME280;4415;42.152;24.744;2023-07-30T05:54:32;99305.00;;;38.36;nan
8758;BME280;4415;42.152;24.744;2023-07-30T05:56:57;99312.91;;;38.22;nan
8758;BME280;4415;42.152;24.744;2023-07-30T05:59:22;99308.63;;;37.14;nan
8758;BME280;4415;42.152;24.744;2023-07-30T06:01:48;99307.72;;;39.62;nan
8758;BME280;4415;42.152;24.744;2023-07-30T06:04:13;99305.78;;;39.88;nan
8758;BME280;4415;42.152;24.744;2023-07-30T06:06:39;99298.88;;;39.89;nan
8758;BME280;4415;42.152;24.744;2023-07-30T06:09:04;99285.41;;;41.27;nan
8758;BME280;4415;42.152;24.744;2023-07-30T06:11:30;99307.25;;;40.64;nan
8758;BME280;4415;42.152;24.744;2023-07-30T06:13:55;99298.50;;;41.98;nan
8758;BME280;4415;42.152;24.744;2023-07-30T06:16:20;99280.13;;;39.91;nan
8758;BME280;4415;42.152;24.744;2023-07-30T06:18:47;99303.59;;;40.58;nan
8758;BME280;4415;42.152;24.744;2023-07-30T06:21:12;99298.91;;;41.06;nan
8758;BME280;4415;42.152;24.744;2023-07-30T06:23:38;99285.47;;;42.23;nan
8758;BME280;4415;42.152;24.744;2023-07-30T06:26:03;99293.13;;;40.04;nan
8758;BME280;4415;42.152;24.744;2023-07-30T06:28:29;99295.09;;;39.43;nan
8758;BME280;4415;42.152;24.744;2023-07-30T06:30:54;99287.47;;;40.95;nan
8758;BME280;4415;42.152;24.744;2023-07-30T06:33:19;99296.47;;;42.97;nan
8758;BME280;4415;42.152;24.744;2023-07-30T06:35:45;99288.72;;;43.36;nan
8758;BME280;4415;42.152;24.744;2023-07-30T06:38:10;99287.19;;;43.35;nan
8758;BME280;4415;42.152;24.744;2023-07-30T06:40:36;99298.16;;;44.57;nan
8758;BME280;4415;42.152;24.744;2023-07-30T06:43:01;99297.66;;;43.90;nan
8758;BME280;4415;42.152;24.744;2023-07-30T06:45:26;99297.72;;;41.55;nan
8758;BME280;4415;42.152;24.744;2023-07-30T06:47:52;99282.25;;;42.69;nan
8758;BME280;4415;42.152;24.744;2023-07-30T06:50:17;99268.97;;;43.82;nan
8758;BME280;4415;42.152;24.744;2023-07-30T06:52:43;99276.94;;;41.69;nan
8758;BME280;4415;42.152;24.744;2023-07-30T06:55:08;99289.44;;;41.15;nan
8758;BME280;4415;42.152;24.744;2023-07-30T06:57:33;99264.19;;;42.94;nan
8758;BME280;4415;42.152;24.744;2023-07-30T06:59:59;99269.63;;;41.57;nan
8758;BME280;4415;42.152;24.744;2023-07-30T07:02:25;99279.03;;;41.01;nan
8758;BME280;4415;42.152;24.744;2023-07-30T07:04:51;99273.19;;;41.16;nan
8758;BME280;4415;42.152;24.744;2023-07-30T07:07:16;99259.91;;;40.44;nan
8758;BME280;4415;42.152;24.744;2023-07-30T07:09:42;99263.69;;;40.87;nan
8758;BME280;4415;42.152;24.744;2023-07-30T07:12:08;99244.03;;;41.41;nan
8758;BME280;4415;42.152;24.744;2023-07-30T07:14:34;99253.66;;;40.15;nan
8758;BME280;4415;42.152;24.744;2023-07-30T07:16:59;99255.38;;;40.52;nan
8758;BME280;4415;42.152;24.744;2023-07-30T07:19:24;99263.28;;;39.48;nan
8758;BME280;4415;42.152;24.744;2023-07-30T07:21:50;99302.41;;;38.47;nan
8758;BME280;4415;42.152;24.744;2023-07-30T07:24:16;99245.41;;;39.36;nan
8758;BME280;4415;42.152;24.744;2023-07-30T07:26:41;99256.06;;;38.97;nan
8758;BME280;4415;42.152;24.744;2023-07-30T07:29:06;99258.78;;;39.56;nan
8758;BME280;4415;42.152;24.744;2023-07-30T07:31:32;99254.19;;;38.36;nan
8758;BME280;4415;42.152;24.744;2023-07-30T07:33:57;99239.41;;;38.70;nan
8758;BME280;4415;42.152;24.744;2023-07-30T07:36:23;99234.66;;;40.67;nan
8758;BME280;4415;42.152;24.744;2023-07-30T07:38:48;99255.06;;;41.33;nan
8758;BME280;4415;42.152;24.744;2023-07-30T07:41:17;99238.69;;;39.54;nan
8758;BME280;4415;42.152;24.744;2023-07-30T07:43:48;99254.44;;;39.75;nan
8758;BME280;4415;42.152;24.744;2023-07-30T07:46:14;99248.84;;;39.60;nan
8758;BME280;4415;42.152;24.744;2023-07-30T07:48:43;99243.88;;;38.91;nan
8758;BME280;4415;42.152;24.744;2023-07-30T07:51:09;99217.84;;;40.32;nan
8758;BME280;4415;42.152;24.744;2023-07-30T07:53:36;99244.63;;;39.56;nan
8758;BME280;4415;42.152;24.744;2023-07-30T07:56:02;99242.59;;;40.63;nan
8758;BME280;4415;42.152;24.744;2023-07-30T07:58:28;99242.22;;;41.43;nan
8758;BME280;4415;42.152;24.744;2023-07-30T08:00:58;99221.91;;;39.65;nan
8758;BME280;4415;42.152;24.744;2023-07-30T08:03:24;99245.69;;;40.39;nan
8758;BME280;4415;42.152;24.744;2023-07-30T08:05:51;99233.00;;;40.54;nan
8758;BME280;4415;42.152;24.744;2023-07-30T08:08:17;99236.13;;;40.11;nan
8758;BME280;4415;42.152;24.744;2023-07-30T08:10:42;99200.94;;;40.17;nan
8758;BME280;4415;42.152;24.744;2023-07-30T08:13:10;99222.31;;;37.82;nan
8758;BME280;4415;42.152;24.744;2023-07-30T08:15:36;99225.47;;;39.45;nan
8758;BME280;4415;42.152;24.744;2023-07-30T08:18:01;99226.97;;;40.01;nan
8758;BME280;4415;42.152;24.744;2023-07-30T08:20:27;99233.06;;;39.94;nan
8758;BME280;4415;42.152;24.744;2023-07-30T08:22:52;99194.88;;;39.44;nan
8758;BME280;4415;42.152;24.744;2023-07-30T08:25:17;99223.31;;;39.55;nan
8758;BME280;4415;42.152;24.744;2023-07-30T08:27:43;99210.44;;;41.34;nan
8758;BME280;4415;42.152;24.744;2023-07-30T08:30:09;99214.09;;;41.88;nan
8758;BME280;4415;42.152;24.744;2023-07-30T08:32:34;99215.56;;;42.48;nan
8758;BME280;4415;42.152;24.744;2023-07-30T08:34:59;99204.31;;;41.94;nan
8758;BME280;4415;42.152;24.744;2023-07-30T08:37:25;99201.88;;;43.13;nan
8758;BME280;4415;42.152;24.744;2023-07-30T08:39:51;99190.91;;;42.06;nan
8758;BME280;4415;42.152;24.744;2023-07-30T08:42:17;99203.69;;;41.26;nan
8758;BME280;4415;42.152;24.744;2023-07-30T08:44:42;99190.44;;;41.48;nan
8758;BME280;4415;42.152;24.744;2023-07-30T08:47:08;99177.47;;;41.31;nan
8758;BME280;4415;42.152;24.744;2023-07-30T08:49:33;99162.84;;;42.36;nan
8758;BME280;4415;42.152;24.744;2023-07-30T08:51:59;99174.22;;;43.13;nan
8758;BME280;4415;42.152;24.744;2023-07-30T08:54:29;99162.53;;;42.06;nan
8758;BME280;4415;42.152;24.744;2023-07-30T08:56:55;99161.72;;;41.83;nan
8758;BME280;4415;42.152;24.744;2023-07-30T08:59:22;99153.84;;;41.08;nan
8758;BME280;4415;42.152;24.744;2023-07-30T09:01:51;99170.44;;;40.52;nan
8758;BME280;4415;42.152;24.744;2023-07-30T09:04:17;99167.66;;;41.32;nan
8758;BME280;4415;42.152;24.744;2023-07-30T09:06:43;99168.66;;;40.55;nan
8758;BME280;4415;42.152;24.744;2023-07-30T09:09:13;99152.41;;;40.04;nan
8758;BME280;4415;42.152;24.744;2023-07-30T09:11:39;99158.06;;;40.50;nan
8758;BME280;4415;42.152;24.744;2023-07-30T09:14:05;99148.41;;;41.04;nan
8758;BME280;4415;42.152;24.744;2023-07-30T09:16:31;99149.13;;;40.63;nan
8758;BME280;4415;42.152;24.744;2023-07-30T09:18:56;99133.28;;;38.49;nan
8758;BME280;4415;42.152;24.744;2023-07-30T09:21:29;99143.88;;;40.50;nan
8758;BME280;4415;42.152;24.744;2023-07-30T09:23:56;99107.25;;;39.89;nan
8758;BME280;4415;42.152;24.744;2023-07-30T09:26:21;99116.19;;;41.02;nan
8758;BME280;4415;42.152;24.744;2023-07-30T09:28:47;99139.00;;;40.50;nan
8758;BME280;4415;42.152;24.744;2023-07-30T09:31:12;99126.00;;;41.01;nan
8758;BME280;4415;42.152;24.744;2023-07-30T09:33:40;99126.03;;;41.71;nan
8758;BME280;4415;42.152;24.744;2023-07-30T09:36:07;99118.69;;;42.51;nan
8758;BME280;4415;42.152;24.744;2023-07-30T09:38:40;99117.09;;;41.95;nan
8758;BME280;4415;42.152;24.744;2023-07-30T09:41:06;99114.28;;;40.88;nan
8758;BME280;4415;42.152;24.744;2023-07-30T09:43:33;99099.38;;;41.35;nan
8758;BME280;4415;42.152;24.744;2023-07-30T09:46:03;99096.19;;;42.03;nan
8758;BME280;4415;42.152;24.744;2023-07-30T09:48:32;99094.75;;;41.43;nan
8758;BME280;4415;42.152;24.744;2023-07-30T09:50:59;99093.59;;;41.72;nan
8758;BME280;4415;42.152;24.744;2023-07-30T09:53:26;99092.81;;;41.83;nan
8758;BME280;4415;42.152;24.744;2023-07-30T09:55:53;99083.41;;;40.90;nan
8758;BME280;4415;42.152;24.744;2023-07-30T09:58:19;99078.00;;;41.40;nan
8758;BME280;4415;42.152;24.744;2023-07-30T10:00:44;99073.34;;;41.37;nan
8758;BME280;4415;42.152;24.744;2023-07-30T10:03:12;99083.97;;;41.58;nan
8758;BME280;4415;42.152;24.744;2023-07-30T10:05:41;99077.88;;;41.88;nan
8758;BME280;4415;42.152;24.744;2023-07-30T10:08:11;99053.53;;;41.53;nan
8758;BME280;4415;42.152;24.744;2023-07-30T10:10:39;99065.38;;;41.46;nan
8758;BME280;4415;42.152;24.744;2023-07-30T10:13:06;99056.78;;;41.30;nan
8758;BME280;4415;42.152;24.744;2023-07-30T10:15:37;99047.88;;;41.64;nan
8758;BME280;4415;42.152;24.744;2023-07-30T10:18:03;99047.19;;;41.16;nan
8758;BME280;4415;42.152;24.744;2023-07-30T10:20:30;99041.97;;;40.98;nan
8758;BME280;4415;42.152;24.744;2023-07-30T10:23:00;99055.22;;;40.07;nan
8758;BME280;4415;42.152;24.744;2023-07-30T10:25:43;99037.78;;;40.88;nan
8758;BME280;4415;42.152;24.744;2023-07-30T10:28:26;99030.69;;;40.61;nan
8758;BME280;4415;42.152;24.744;2023-07-30T10:30:56;99036.41;;;40.35;nan
8758;BME280;4415;42.152;24.744;2023-07-30T10:33:22;99016.44;;;40.92;nan
8758;BME280;4415;42.152;24.744;2023-07-30T10:35:47;99024.81;;;41.24;nan
8758;BME280;4415;42.152;24.744;2023-07-30T10:40:40;99015.72;;;41.03;nan
8758;BME280;4415;42.152;24.744;2023-07-30T10:43:17;99018.75;;;39.17;nan
8758;BME280;4415;42.152;24.744;2023-07-30T10:45:50;99027.66;;;38.90;nan
8758;BME280;4415;42.152;24.744;2023-07-30T10:48:19;99026.34;;;38.86;nan
8758;BME280;4415;42.152;24.744;2023-07-30T10:50:54;99022.50;;;39.09;nan
8758;BME280;4415;42.152;24.744;2023-07-30T10:53:19;99011.00;;;39.12;nan
8758;BME280;4415;42.152;24.744;2023-07-30T10:55:45;99019.94;;;39.51;nan
8758;BME280;4415;42.152;24.744;2023-07-30T10:58:10;99014.97;;;39.66;nan
8758;BME280;4415;42.152;24.744;2023-07-30T11:00:37;99017.78;;;40.23;nan
8758;BME280;4415;42.152;24.744;2023-07-30T11:03:03;99018.47;;;39.35;nan
8758;BME280;4415;42.152;24.744;2023-07-30T11:05:28;99008.84;;;39.07;nan
8758;BME280;4415;42.152;24.744;2023-07-30T11:07:54;98985.84;;;39.14;nan
8758;BME280;4415;42.152;24.744;2023-07-30T11:10:20;99001.44;;;39.76;nan
8758;BME280;4415;42.152;24.744;2023-07-30T11:12:49;99001.94;;;39.28;nan
8758;BME280;4415;42.152;24.744;2023-07-30T11:15:17;98974.41;;;37.40;nan
8758;BME280;4415;42.152;24.744;2023-07-30T11:17:43;98996.44;;;37.13;nan
8758;BME280;4415;42.152;24.744;2023-07-30T11:20:24;98981.34;;;37.54;nan
8758;BME280;4415;42.152;24.744;2023-07-30T11:22:52;98983.44;;;37.30;nan
8758;BME280;4415;42.152;24.744;2023-07-30T11:25:17;98977.09;;;37.88;nan
8758;BME280;4415;42.152;24.744;2023-07-30T11:27:47;98989.91;;;38.73;nan
8758;BME280;4415;42.152;24.744;2023-07-30T11:30:13;98970.81;;;39.23;nan
8758;BME280;4415;42.152;24.744;2023-07-30T11:32:38;98970.25;;;39.45;nan
8758;BME280;4415;42.152;24.744;2023-07-30T11:35:05;98966.03;;;39.34;nan
8758;BME280;4415;42.152;24.744;2023-07-30T11:37:32;98963.66;;;39.07;nan
8758;BME280;4415;42.152;24.744;2023-07-30T11:39:58;98976.28;;;38.02;nan
8758;BME280;4415;42.152;24.744;2023-07-30T11:42:23;98968.66;;;38.37;nan
8758;BME280;4415;42.152;24.744;2023-07-30T11:44:49;98943.25;;;38.98;nan
8758;BME280;4415;42.152;24.744;2023-07-30T11:47:23;98950.19;;;39.43;nan
8758;BME280;4415;42.152;24.744;2023-07-30T11:49:56;99025.41;;;39.14;nan
8758;BME280;4415;42.152;24.744;2023-07-30T11:52:21;98947.00;;;38.89;nan
8758;BME280;4415;42.152;24.744;2023-07-30T11:54:47;98935.53;;;39.18;nan
8758;BME280;4415;42.152;24.744;2023-07-30T11:57:13;98931.75;;;38.61;nan
8758;BME280;4415;42.152;24.744;2023-07-30T11:59:38;98922.78;;;38.07;nan
8758;BME280;4415;42.152;24.744;2023-07-30T12:02:07;98919.34;;;38.53;nan
8758;BME280;4415;42.152;24.744;2023-07-30T12:04:45;98914.25;;;38.57;nan
8758;BME280;4415;42.152;24.744;2023-07-30T12:07:10;98926.31;;;38.98;nan
8758;BME280;4415;42.152;24.744;2023-07-30T12:09:36;98913.72;;;39.19;nan
8758;BME280;4415;42.152;24.744;2023-07-30T12:12:03;98916.00;;;38.54;nan
8758;BME280;4415;42.152;24.744;2023-07-30T12:17:14;98891.34;;;37.65;nan
8758;BME280;4415;42.152;24.744;2023-07-30T12:19:41;98882.47;;;38.21;nan
8758;BME280;4415;42.152;24.744;2023-07-30T12:22:06;98893.22;;;38.58;nan
8758;BME280;4415;42.152;24.744;2023-07-30T12:24:32;98890.97;;;38.82;nan
8758;BME280;4415;42.152;24.744;2023-07-30T12:26:57;98879.66;;;38.82;nan
8758;BME280;4415;42.152;24.744;2023-07-30T12:29:24;98859.31;;;38.78;nan
8758;BME280;4415;42.152;24.744;2023-07-30T12:31:49;98880.63;;;37.11;nan
8758;BME280;4415;42.152;24.744;2023-07-30T12:34:18;98878.69;;;37.17;nan
8758;BME280;4415;42.152;24.744;2023-07-30T12:36:44;98872.53;;;37.42;nan
8758;BME280;4415;42.152;24.744;2023-07-30T12:39:09;98869.13;;;36.85;nan
8758;BME280;4415;42.152;24.744;2023-07-30T12:41:34;98868.13;;;36.73;nan
8758;BME280;4415;42.152;24.744;2023-07-30T12:44:00;98865.03;;;36.71;nan
8758;BME280;4415;42.152;24.744;2023-07-30T12:46:25;98849.75;;;37.01;nan
8758;BME280;4415;42.152;24.744;2023-07-30T12:48:55;98862.41;;;37.50;nan
8758;BME280;4415;42.152;24.744;2023-07-30T12:51:21;98860.63;;;37.09;nan
8758;BME280;4415;42.152;24.744;2023-07-30T12:53:47;98849.78;;;36.39;nan
8758;BME280;4415;42.152;24.744;2023-07-30T12:56:12;98866.06;;;36.97;nan
8758;BME280;4415;42.152;24.744;2023-07-30T12:58:40;98853.69;;;36.80;nan
8758;BME280;4415;42.152;24.744;2023-07-30T13:01:05;98854.00;;;37.26;nan
8758;BME280;4415;42.152;24.744;2023-07-30T13:03:31;98845.28;;;37.10;nan
8758;BME280;4415;42.152;24.744;2023-07-30T13:05:57;98840.63;;;37.07;nan
8758;BME280;4415;42.152;24.744;2023-07-30T13:08:22;98822.72;;;37.53;nan
8758;BME280;4415;42.152;24.744;2023-07-30T13:10:47;98833.63;;;37.31;nan
8758;BME280;4415;42.152;24.744;2023-07-30T13:13:13;98831.69;;;37.23;nan
8758;BME280;4415;42.152;24.744;2023-07-30T13:15:38;98821.78;;;37.13;nan
8758;BME280;4415;42.152;24.744;2023-07-30T13:18:04;98818.28;;;37.03;nan
8758;BME280;4415;42.152;24.744;2023-07-30T13:20:29;98808.13;;;36.53;nan
8758;BME280;4415;42.152;24.744;2023-07-30T13:22:56;98807.94;;;36.56;nan
8758;BME280;4415;42.152;24.744;2023-07-30T13:25:21;98812.97;;;36.52;nan
8758;BME280;4415;42.152;24.744;2023-07-30T13:27:47;98810.22;;;36.43;nan
8758;BME280;4415;42.152;24.744;2023-07-30T13:30:12;98803.63;;;35.99;nan
8758;BME280;4415;42.152;24.744;2023-07-30T13:32:38;98795.50;;;36.01;nan
8758;BME280;4415;42.152;24.744;2023-07-30T13:35:03;98780.22;;;35.36;nan
8758;BME280;4415;42.152;24.744;2023-07-30T13:37:29;98782.84;;;35.40;nan
8758;BME280;4415;42.152;24.744;2023-07-30T13:39:54;98788.00;;;35.41;nan
8758;BME280;4415;42.152;24.744;2023-07-30T13:42:19;98775.53;;;35.33;nan
8758;BME280;4415;42.152;24.744;2023-07-30T13:44:45;98777.00;;;35.52;nan
8758;BME280;4415;42.152;24.744;2023-07-30T13:47:10;98782.13;;;35.63;nan
8758;BME280;4415;42.152;24.744;2023-07-30T13:49:35;98770.47;;;35.55;nan
8758;BME280;4415;42.152;24.744;2023-07-30T13:52:01;98778.75;;;35.50;nan
8758;BME280;4415;42.152;24.744;2023-07-30T13:54:26;98775.31;;;35.55;nan
8758;BME280;4415;42.152;24.744;2023-07-30T13:56:52;98766.47;;;35.71;nan
8758;BME280;4415;42.152;24.744;2023-07-30T13:59:17;98765.00;;;35.84;nan
8758;BME280;4415;42.152;24.744;2023-07-30T14:01:42;98781.00;;;35.69;nan
8758;BME280;4415;42.152;24.744;2023-07-30T14:04:08;98769.28;;;35.38;nan
8758;BME280;4415;42.152;24.744;2023-07-30T14:06:33;98768.13;;;35.54;nan
8758;BME280;4415;42.152;24.744;2023-07-30T14:08:59;98813.75;;;35.40;nan
8758;BME280;4415;42.152;24.744;2023-07-30T14:11:28;98768.81;;;35.72;nan
8758;BME280;4415;42.152;24.744;2023-07-30T14:13:53;98759.78;;;35.92;nan
8758;BME280;4415;42.152;24.744;2023-07-30T14:16:19;98749.38;;;36.07;nan
8758;BME280;4415;42.152;24.744;2023-07-30T14:18:44;98734.38;;;35.86;nan
8758;BME280;4415;42.152;24.744;2023-07-30T14:21:09;98840.34;;;35.71;nan
8758;BME280;4415;42.152;24.744;2023-07-30T14:23:36;98755.03;;;35.74;nan
8758;BME280;4415;42.152;24.744;2023-07-30T14:26:02;98738.47;;;36.00;nan
8758;BME280;4415;42.152;24.744;2023-07-30T14:28:27;98746.69;;;36.13;nan
8758;BME280;4415;42.152;24.744;2023-07-30T14:30:53;98739.69;;;36.08;nan